sensor_id;sensor_type;location;lat;lon;timestamp;pressure;altitude;pressure_sealevel;temperature;humidity
21547;BME280;41275;51.912;4.388;2023-02-25T00:03:07;100929.88;;;11.59;46.49
21547;BME280;41275;51.912;4.388;2023-02-25T00:08:28;100935.31;;;11.64;45.98
21547;BME280;41275;51.912;4.388;2023-02-25T00:13:50;100927.56;;;11.74;45.64
21547;BME280;41275;51.912;4.388;2023-02-25T00:19:11;100927.72;;;11.91;45.40
21547;BME280;41275;51.912;4.388;2023-02-25T00:24:32;100928.94;;;12.12;44.65
21547;BME280;41275;51.912;4.388;2023-02-25T00:29:54;100915.53;;;12.31;44.04
21547;BME280;41275;51.912;4.388;2023-02-25T00:35:15;100930.28;;;12.38;43.75
21547;BME280;41275;51.912;4.388;2023-02-25T00:40:38;100926.56;;;12.39;43.86
21547;BME280;41275;51.912;4.388;2023-02-25T00:45:59;100920.81;;;12.42;44.38
21547;BME280;41275;51.912;4.388;2023-02-25T00:51:23;100927.25;;;12.46;44.78
21547;BME280;41275;51.912;4.388;2023-02-25T00:56:44;100932.06;;;12.49;44.70
21547;BME280;41275;51.912;4.388;2023-02-25T01:02:06;100940.19;;;12.43;44.39
21547;BME280;41275;51.912;4.388;2023-02-25T01:07:27;100930.84;;;12.40;44.33
21547;BME280;41275;51.912;4.388;2023-02-25T01:12:48;100929.13;;;12.34;44.53
21547;BME280;41275;51.912;4.388;2023-02-25T01:18:09;100946.78;;;12.28;43.81
21547;BME280;41275;51.912;4.388;2023-02-25T01:23:31;100952.09;;;12.28;43.62
21547;BME280;41275;51.912;4.388;2023-02-25T01:28:52;100951.03;;;12.29;43.64
21547;BME280;41275;51.912;4.388;2023-02-25T01:34:15;100939.88;;;12.27;43.70
21547;BME280;41275;51.912;4.388;2023-02-25T01:39:38;100956.81;;;12.38;43.85
21547;BME280;41275;51.912;4.388;2023-02-25T01:50:44;100952.31;;;12.39;43.18
21547;BME280;41275;51.912;4.388;2023-02-25T01:56:09;100941.69;;;12.39;42.94
21547;BME280;41275;51.912;4.388;2023-02-25T02:01:33;100933.47;;;12.40;42.70
21547;BME280;41275;51.912;4.388;2023-02-25T02:06:56;100936.94;;;12.41;42.40
21547;BME280;41275;51.912;4.388;2023-02-25T02:12:19;100936.94;;;12.41;42.64
21547;BME280;41275;51.912;4.388;2023-02-25T02:17:49;100945.34;;;12.49;42.64
21547;BME280;41275;51.912;4.388;2023-02-25T02:23:30;100966.22;;;11.94;42.86
21547;BME280;41275;51.912;4.388;2023-02-25T02:35:01;100962.34;;;11.43;44.36
21547;BME280;41275;51.912;4.388;2023-02-25T02:46:24;100968.72;;;11.53;44.57
21547;BME280;41275;51.912;4.388;2023-02-25T02:51:54;100955.91;;;11.62;44.50
21547;BME280;41275;51.912;4.388;2023-02-25T02:57:19;100954.66;;;11.65;44.21
21547;BME280;41275;51.912;4.388;2023-02-25T03:02:45;100956.84;;;11.56;44.50
21547;BME280;41275;51.912;4.388;2023-02-25T03:08:14;100950.50;;;11.57;44.66
21547;BME280;41275;51.912;4.388;2023-02-25T03:13:37;100961.00;;;11.64;44.68
21547;BME280;41275;51.912;4.388;2023-02-25T03:19:03;100964.47;;;11.64;45.18
21547;BME280;41275;51.912;4.388;2023-02-25T03:24:31;100958.22;;;11.82;44.74
21547;BME280;41275;51.912;4.388;2023-02-25T03:30:03;100951.44;;;11.98;44.69
21547;BME280;41275;51.912;4.388;2023-02-25T03:35:26;100966.88;;;12.13;44.34
21547;BME280;41275;51.912;4.388;2023-02-25T03:40:49;100976.31;;;12.32;44.06
21547;BME280;41275;51.912;4.388;2023-02-25T03:46:12;100974.25;;;12.34;44.12
21547;BME280;41275;51.912;4.388;2023-02-25T03:51:35;100974.97;;;12.06;44.47
21547;BME280;41275;51.912;4.388;2023-02-25T03:57:00;100976.00;;;11.93;45.14
21547;BME280;41275;51.912;4.388;2023-02-25T04:02:27;100976.00;;;12.05;45.54
21547;BME280;41275;51.912;4.388;2023-02-25T04:07:50;100993.19;;;11.79;45.62
21547;BME280;41275;51.912;4.388;2023-02-25T04:13:13;100973.06;;;11.36;46.12
21547;BME280;41275;51.912;4.388;2023-02-25T04:18:35;100974.44;;;11.39;45.34
21547;BME280;41275;51.912;4.388;2023-02-25T04:23:57;100991.50;;;11.54;44.16
21547;BME280;41275;51.912;4.388;2023-02-25T04:29:18;101004.91;;;11.60;43.78
21547;BME280;41275;51.912;4.388;2023-02-25T04:34:40;101000.44;;;11.72;43.44
21547;BME280;41275;51.912;4.388;2023-02-25T04:40:01;101001.00;;;11.74;42.80
21547;BME280;41275;51.912;4.388;2023-02-25T04:45:24;101010.03;;;11.85;42.44
21547;BME280;41275;51.912;4.388;2023-02-25T04:50:46;100999.06;;;11.93;42.31
21547;BME280;41275;51.912;4.388;2023-02-25T04:56:08;101007.94;;;11.98;42.29
21547;BME280;41275;51.912;4.388;2023-02-25T05:01:30;101009.78;;;11.98;42.35
21547;BME280;41275;51.912;4.388;2023-02-25T05:06:52;101006.69;;;12.01;42.22
21547;BME280;41275;51.912;4.388;2023-02-25T05:12:13;101004.03;;;12.01;42.42
21547;BME280;41275;51.912;4.388;2023-02-25T05:17:35;101008.63;;;12.06;42.66
21547;BME280;41275;51.912;4.388;2023-02-25T05:22:56;101001.97;;;12.03;42.91
21547;BME280;41275;51.912;4.388;2023-02-25T05:28:17;101004.28;;;11.99;43.10
21547;BME280;41275;51.912;4.388;2023-02-25T05:33:39;101016.03;;;12.03;43.41
21547;BME280;41275;51.912;4.388;2023-02-25T05:39:00;101011.88;;;12.08;42.82
21547;BME280;41275;51.912;4.388;2023-02-25T05:44:22;101016.38;;;11.95;42.97
21547;BME280;41275;51.912;4.388;2023-02-25T05:49:44;101016.22;;;11.78;42.92
21547;BME280;41275;51.912;4.388;2023-02-25T05:55:05;101014.81;;;11.64;43.07
21547;BME280;41275;51.912;4.388;2023-02-25T06:00:29;101025.66;;;11.74;43.17
21547;BME280;41275;51.912;4.388;2023-02-25T06:05:50;101033.09;;;11.96;43.21
21547;BME280;41275;51.912;4.388;2023-02-25T06:11:23;101027.81;;;12.08;43.53
21547;BME280;41275;51.912;4.388;2023-02-25T06:16:47;101034.16;;;11.95;43.32
21547;BME280;41275;51.912;4.388;2023-02-25T06:22:08;101038.41;;;11.84;43.21
21547;BME280;41275;51.912;4.388;2023-02-25T06:27:29;101033.91;;;11.54;43.27
21547;BME280;41275;51.912;4.388;2023-02-25T06:32:51;101052.19;;;11.33;43.66
21547;BME280;41275;51.912;4.388;2023-02-25T06:38:12;101039.28;;;11.24;43.18
21547;BME280;41275;51.912;4.388;2023-02-25T06:43:34;101053.63;;;11.17;43.78
21547;BME280;41275;51.912;4.388;2023-02-25T06:48:55;101050.91;;;11.35;43.88
21547;BME280;41275;51.912;4.388;2023-02-25T06:54:17;101068.28;;;11.61;43.70
21547;BME280;41275;51.912;4.388;2023-02-25T06:59:38;101109.19;;;11.53;43.59
21547;BME280;41275;51.912;4.388;2023-02-25T07:05:00;101088.59;;;11.07;45.09
21547;BME280;41275;51.912;4.388;2023-02-25T07:10:22;101077.13;;;10.76;46.11
21547;BME280;41275;51.912;4.388;2023-02-25T07:15:44;101103.31;;;10.66;46.82
21547;BME280;41275;51.912;4.388;2023-02-25T07:21:05;101117.88;;;10.94;46.75
21547;BME280;41275;51.912;4.388;2023-02-25T07:26:26;101123.47;;;11.04;45.98
21547;BME280;41275;51.912;4.388;2023-02-25T07:31:48;101098.75;;;10.92;46.20
21547;BME280;41275;51.912;4.388;2023-02-25T07:37:09;101122.75;;;10.78;46.62
21547;BME280;41275;51.912;4.388;2023-02-25T07:42:32;101107.66;;;10.79;47.40
21547;BME280;41275;51.912;4.388;2023-02-25T07:47:54;101122.38;;;10.75;47.24
21547;BME280;41275;51.912;4.388;2023-02-25T07:53:15;101114.50;;;10.87;47.58
21547;BME280;41275;51.912;4.388;2023-02-25T07:58:37;101118.47;;;10.96;47.32
21547;BME280;41275;51.912;4.388;2023-02-25T08:04:01;101122.72;;;11.15;47.59
21547;BME280;41275;51.912;4.388;2023-02-25T08:09:24;101133.34;;;11.45;47.38
21547;BME280;41275;51.912;4.388;2023-02-25T08:14:45;101127.09;;;12.12;47.12
21547;BME280;41275;51.912;4.388;2023-02-25T08:20:06;101118.34;;;12.70;46.21
21547;BME280;41275;51.912;4.388;2023-02-25T08:25:29;101126.91;;;13.24;45.47
21547;BME280;41275;51.912;4.388;2023-02-25T08:30:51;101138.09;;;13.55;44.58
21547;BME280;41275;51.912;4.388;2023-02-25T08:36:15;101133.94;;;13.18;45.27
21547;BME280;41275;51.912;4.388;2023-02-25T08:41:36;101139.00;;;13.32;44.43
21547;BME280;41275;51.912;4.388;2023-02-25T08:46:58;101144.47;;;13.54;42.74
21547;BME280;41275;51.912;4.388;2023-02-25T08:52:19;101134.72;;;13.59;41.84
21547;BME280;41275;51.912;4.388;2023-02-25T08:57:41;101135.31;;;13.61;41.33
21547;BME280;41275;51.912;4.388;2023-02-25T09:03:02;101135.50;;;13.43;41.14
21547;BME280;41275;51.912;4.388;2023-02-25T09:08:23;101138.53;;;13.35;40.84
21547;BME280;41275;51.912;4.388;2023-02-25T09:13:45;101145.78;;;13.39;40.53
21547;BME280;41275;51.912;4.388;2023-02-25T09:19:06;101165.03;;;13.58;40.20
21547;BME280;41275;51.912;4.388;2023-02-25T09:24:27;101161.03;;;13.44;39.54
21547;BME280;41275;51.912;4.388;2023-02-25T09:29:50;101166.53;;;13.25;39.93
21547;BME280;41275;51.912;4.388;2023-02-25T09:35:11;101170.56;;;13.16;39.80
21547;BME280;41275;51.912;4.388;2023-02-25T09:40:32;101187.44;;;13.22;39.76
21547;BME280;41275;51.912;4.388;2023-02-25T09:46:02;101192.00;;;13.50;39.41
21547;BME280;41275;51.912;4.388;2023-02-25T09:51:31;101213.22;;;13.90;39.29
21547;BME280;41275;51.912;4.388;2023-02-25T09:56:54;101223.06;;;13.90;39.41
21547;BME280;41275;51.912;4.388;2023-02-25T10:02:26;101235.38;;;13.79;40.51
21547;BME280;41275;51.912;4.388;2023-02-25T10:07:58;101237.47;;;13.77;40.98
21547;BME280;41275;51.912;4.388;2023-02-25T10:13:36;101230.91;;;13.68;41.94
21547;BME280;41275;51.912;4.388;2023-02-25T10:25:11;101234.56;;;14.07;41.11
21547;BME280;41275;51.912;4.388;2023-02-25T10:30:57;101245.53;;;13.82;40.86
21547;BME280;41275;51.912;4.388;2023-02-25T10:36:30;101248.94;;;13.94;40.05
21547;BME280;41275;51.912;4.388;2023-02-25T10:41:56;101247.88;;;14.07;39.94
21547;BME280;41275;51.912;4.388;2023-02-25T10:47:28;101240.91;;;14.35;39.28
21547;BME280;41275;51.912;4.388;2023-02-25T10:53:02;101263.94;;;14.12;39.62
21547;BME280;41275;51.912;4.388;2023-02-25T10:58:36;101254.66;;;13.86;40.33
21547;BME280;41275;51.912;4.388;2023-02-25T11:04:07;101253.94;;;13.62;40.83
21547;BME280;41275;51.912;4.388;2023-02-25T11:09:32;101275.34;;;13.44;41.01
21547;BME280;41275;51.912;4.388;2023-02-25T11:14:56;101270.75;;;13.39;41.15
21547;BME280;41275;51.912;4.388;2023-02-25T11:20:24;101272.53;;;13.62;41.06
21547;BME280;41275;51.912;4.388;2023-02-25T11:25:45;101290.25;;;13.97;40.60
21547;BME280;41275;51.912;4.388;2023-02-25T11:31:11;101300.97;;;14.02;39.82
21547;BME280;41275;51.912;4.388;2023-02-25T11:36:37;101291.38;;;14.30;39.33
21547;BME280;41275;51.912;4.388;2023-02-25T11:42:23;101302.56;;;15.11;38.45
21547;BME280;41275;51.912;4.388;2023-02-25T11:47:45;101295.91;;;15.69;36.94
21547;BME280;41275;51.912;4.388;2023-02-25T11:53:30;101294.66;;;15.77;35.82
21547;BME280;41275;51.912;4.388;2023-02-25T11:59:27;101293.31;;;15.35;36.03
21547;BME280;41275;51.912;4.388;2023-02-25T12:28:02;101342.41;;;13.34;39.16
21547;BME280;41275;51.912;4.388;2023-02-25T12:33:56;101340.41;;;13.77;38.37
21547;BME280;41275;51.912;4.388;2023-02-25T12:39:59;101331.59;;;14.16;37.14
21547;BME280;41275;51.912;4.388;2023-02-25T12:45:52;101334.88;;;14.35;36.19
21547;BME280;41275;51.912;4.388;2023-02-25T12:57:54;101342.50;;;15.06;35.24
21547;BME280;41275;51.912;4.388;2023-02-25T13:09:15;101346.81;;;15.84;35.44
21547;BME280;41275;51.912;4.388;2023-02-25T13:15:15;101340.66;;;17.29;33.63
21547;BME280;41275;51.912;4.388;2023-02-25T13:26:26;101347.41;;;20.33;29.94
21547;BME280;41275;51.912;4.388;2023-02-25T13:37:29;101340.31;;;18.56;30.07
21547;BME280;41275;51.912;4.388;2023-02-25T13:43:24;101346.66;;;19.52;29.01
21547;BME280;41275;51.912;4.388;2023-02-25T13:49:13;101346.16;;;20.20;26.64
21547;BME280;41275;51.912;4.388;2023-02-25T14:06:44;101374.63;;;20.21;23.79
21547;BME280;41275;51.912;4.388;2023-02-25T14:12:21;101375.63;;;21.38;22.77
21547;BME280;41275;51.912;4.388;2023-02-25T14:18:07;101373.34;;;20.92;23.01
21547;BME280;41275;51.912;4.388;2023-02-25T14:40:55;101390.88;;;19.91;23.91
21547;BME280;41275;51.912;4.388;2023-02-25T14:46:33;101406.97;;;20.95;23.00
21547;BME280;41275;51.912;4.388;2023-02-25T14:58:11;101437.59;;;17.41;25.20
21547;BME280;41275;51.912;4.388;2023-02-25T15:03:45;101439.13;;;18.27;24.65
21547;BME280;41275;51.912;4.388;2023-02-25T15:20:25;101456.25;;;14.88;26.39
21547;BME280;41275;51.912;4.388;2023-02-25T15:31:39;101464.91;;;14.27;27.32
21547;BME280;41275;51.912;4.388;2023-02-25T15:37:19;101464.59;;;14.11;27.71
21547;BME280;41275;51.912;4.388;2023-02-25T15:58:50;101499.94;;;13.30;29.02
21547;BME280;41275;51.912;4.388;2023-02-25T16:04:43;101503.94;;;13.20;28.76
21547;BME280;41275;51.912;4.388;2023-02-25T16:15:43;101521.31;;;13.05;29.72
21547;BME280;41275;51.912;4.388;2023-02-25T16:21:15;101534.38;;;13.24;30.19
21547;BME280;41275;51.912;4.388;2023-02-25T16:43:55;101564.91;;;12.30;29.90
21547;BME280;41275;51.912;4.388;2023-02-25T16:49:43;101572.59;;;12.13;30.23
21547;BME280;41275;51.912;4.388;2023-02-25T16:55:06;101577.78;;;12.01;30.21
21547;BME280;41275;51.912;4.388;2023-02-25T17:00:29;101585.22;;;11.93;30.55
21547;BME280;41275;51.912;4.388;2023-02-25T17:06:02;101588.75;;;11.80;31.13
21547;BME280;41275;51.912;4.388;2023-02-25T17:11:24;101594.16;;;11.67;31.49
21547;BME280;41275;51.912;4.388;2023-02-25T17:16:45;101594.47;;;11.52;31.56
21547;BME280;41275;51.912;4.388;2023-02-25T17:22:08;101611.22;;;11.46;32.23
21547;BME280;41275;51.912;4.388;2023-02-25T17:27:29;101618.03;;;11.28;32.72
21547;BME280;41275;51.912;4.388;2023-02-25T17:32:55;101625.19;;;11.21;32.64
21547;BME280;41275;51.912;4.388;2023-02-25T17:38:21;101633.00;;;11.10;33.04
21547;BME280;41275;51.912;4.388;2023-02-25T17:43:43;101637.50;;;11.02;32.91
21547;BME280;41275;51.912;4.388;2023-02-25T17:49:20;101638.13;;;10.91;33.61
21547;BME280;41275;51.912;4.388;2023-02-25T17:54:46;101642.22;;;10.80;33.53
21547;BME280;41275;51.912;4.388;2023-02-25T18:00:31;101652.63;;;10.75;33.99
21547;BME280;41275;51.912;4.388;2023-02-25T18:06:00;101662.00;;;10.71;34.51
21547;BME280;41275;51.912;4.388;2023-02-25T18:16:46;101674.44;;;10.71;35.15
21547;BME280;41275;51.912;4.388;2023-02-25T18:22:30;101697.66;;;10.69;35.00
21547;BME280;41275;51.912;4.388;2023-02-25T18:27:53;101704.97;;;10.93;35.06
21547;BME280;41275;51.912;4.388;2023-02-25T18:33:15;101709.41;;;11.06;34.92
21547;BME280;41275;51.912;4.388;2023-02-25T18:38:36;101715.34;;;10.88;35.31
21547;BME280;41275;51.912;4.388;2023-02-25T18:43:57;101718.81;;;10.69;35.47
21547;BME280;41275;51.912;4.388;2023-02-25T18:49:19;101720.47;;;10.56;36.37
21547;BME280;41275;51.912;4.388;2023-02-25T18:54:40;101724.56;;;10.46;36.30
21547;BME280;41275;51.912;4.388;2023-02-25T19:00:03;101740.63;;;10.38;36.57
21547;BME280;41275;51.912;4.388;2023-02-25T19:05:25;101744.28;;;10.30;36.76
21547;BME280;41275;51.912;4.388;2023-02-25T19:10:46;101746.69;;;10.25;37.27
21547;BME280;41275;51.912;4.388;2023-02-25T19:16:08;101741.19;;;10.20;37.73
21547;BME280;41275;51.912;4.388;2023-02-25T19:21:30;101750.75;;;10.14;37.87
21547;BME280;41275;51.912;4.388;2023-02-25T19:26:51;101746.69;;;10.18;37.81
21547;BME280;41275;51.912;4.388;2023-02-25T19:32:13;101763.38;;;10.19;38.12
21547;BME280;41275;51.912;4.388;2023-02-25T19:37:38;101767.25;;;10.23;38.03
21547;BME280;41275;51.912;4.388;2023-02-25T19:43:00;101767.59;;;10.13;38.18
21547;BME280;41275;51.912;4.388;2023-02-25T19:48:22;101771.47;;;10.04;38.60
21547;BME280;41275;51.912;4.388;2023-02-25T19:53:44;101769.59;;;9.91;39.20
21547;BME280;41275;51.912;4.388;2023-02-25T19:59:05;101776.69;;;9.84;39.13
21547;BME280;41275;51.912;4.388;2023-02-25T20:04:29;101784.41;;;9.79;39.19
21547;BME280;41275;51.912;4.388;2023-02-25T20:09:50;101797.38;;;9.74;39.46
21547;BME280;41275;51.912;4.388;2023-02-25T20:15:12;101791.06;;;9.68;39.53
21547;BME280;41275;51.912;4.388;2023-02-25T20:20:34;101801.19;;;9.65;39.84
21547;BME280;41275;51.912;4.388;2023-02-25T20:26:08;101807.69;;;9.62;39.43
21547;BME280;41275;51.912;4.388;2023-02-25T20:31:29;101798.09;;;9.54;39.50
21547;BME280;41275;51.912;4.388;2023-02-25T20:42:15;101804.97;;;9.49;40.43
21547;BME280;41275;51.912;4.388;2023-02-25T20:47:38;101812.25;;;9.40;40.55
21547;BME280;41275;51.912;4.388;2023-02-25T20:53:00;101817.28;;;9.35;40.29
21547;BME280;41275;51.912;4.388;2023-02-25T20:58:21;101827.03;;;9.34;40.74
21547;BME280;41275;51.912;4.388;2023-02-25T21:03:42;101826.22;;;9.34;40.28
21547;BME280;41275;51.912;4.388;2023-02-25T21:09:04;101830.47;;;9.28;40.60
21547;BME280;41275;51.912;4.388;2023-02-25T21:14:26;101839.78;;;9.24;40.13
21547;BME280;41275;51.912;4.388;2023-02-25T21:19:47;101849.09;;;9.20;40.60
21547;BME280;41275;51.912;4.388;2023-02-25T21:25:09;101847.03;;;9.16;40.05
21547;BME280;41275;51.912;4.388;2023-02-25T21:30:30;101861.25;;;9.15;40.64
21547;BME280;41275;51.912;4.388;2023-02-25T21:35:52;101863.25;;;9.13;40.25
21547;BME280;41275;51.912;4.388;2023-02-25T21:41:13;101859.97;;;9.10;40.91
21547;BME280;41275;51.912;4.388;2023-02-25T21:46:35;101863.84;;;9.08;40.90
21547;BME280;41275;51.912;4.388;2023-02-25T21:51:56;101873.75;;;9.06;40.73
21547;BME280;41275;51.912;4.388;2023-02-25T21:57:17;101870.88;;;9.01;41.08
21547;BME280;41275;51.912;4.388;2023-02-25T22:02:38;101881.00;;;8.97;40.40
21547;BME280;41275;51.912;4.388;2023-02-25T22:08:00;101890.13;;;8.95;40.87
21547;BME280;41275;51.912;4.388;2023-02-25T22:13:21;101898.03;;;8.95;40.76
21547;BME280;41275;51.912;4.388;2023-02-25T22:18:42;101905.50;;;8.91;40.67
21547;BME280;41275;51.912;4.388;2023-02-25T22:24:04;101908.97;;;8.92;41.20
21547;BME280;41275;51.912;4.388;2023-02-25T22:29:25;101904.91;;;8.89;40.70
21547;BME280;41275;51.912;4.388;2023-02-25T22:34:47;101889.31;;;8.94;40.87
21547;BME280;41275;51.912;4.388;2023-02-25T22:40:09;101897.91;;;9.03;40.99
21547;BME280;41275;51.912;4.388;2023-02-25T22:45:31;101896.88;;;9.25;40.82
21547;BME280;41275;51.912;4.388;2023-02-25T22:50:52;101893.63;;;9.51;39.93
21547;BME280;41275;51.912;4.388;2023-02-25T22:56:13;101909.63;;;9.78;39.90
21547;BME280;41275;51.912;4.388;2023-02-25T23:01:35;101900.78;;;9.92;39.26
21547;BME280;41275;51.912;4.388;2023-02-25T23:06:56;101899.81;;;10.00;39.58
21547;BME280;41275;51.912;4.388;2023-02-25T23:12:18;101901.47;;;10.07;39.31
21547;BME280;41275;51.912;4.388;2023-02-25T23:17:39;101908.72;;;10.27;39.42
21547;BME280;41275;51.912;4.388;2023-02-25T23:23:00;101903.03;;;10.30;38.87
21547;BME280;41275;51.912;4.388;2023-02-25T23:28:24;101910.16;;;10.36;38.92
21547;BME280;41275;51.912;4.388;2023-02-25T23:33:46;101907.72;;;10.41;38.77
21547;BME280;41275;51.912;4.388;2023-02-25T23:39:08;101907.38;;;10.51;38.80
21547;BME280;41275;51.912;4.388;2023-02-25T23:44:29;101911.25;;;10.55;38.71
21547;BME280;41275;51.912;4.388;2023-02-25T23:49:50;101924.28;;;10.50;38.51
21547;BME280;41275;51.912;4.388;2023-02-25T23:55:13;101919.75;;;10.44;38.70
